Time,TemperatureF,DewpointF,PressureIn,WindDirection,WindDirectionDegrees,WindSpeedMPH,WindSpeedGustMPH,Humidity,HourlyPrecipIn,Conditions,Clouds,dailyrainin,SoftwareType,DateUTC
2013-02-07 00:02:00,53.0,43.0,29.84,SE,144,1.0,-999.0,69,-99.99,,,-99.99,,2013-02-07 06:02:00,
2013-02-07 00:11:00,53.0,43.0,29.84,SE,144,1.0,-999.0,69,-99.99,,,-99.99,,2013-02-07 06:11:00,
2013-02-07 00:22:00,53.0,44.0,29.84,SSE,165,1.0,-999.0,71,-99.99,,,-99.99,,2013-02-07 06:22:00,
2013-02-07 00:31:00,52.0,43.0,29.83,SE,136,1.0,-999.0,72,-99.99,,,-99.99,,2013-02-07 06:31:00,
2013-02-07 00:43:00,52.0,43.0,29.83,SE,136,1.0,-999.0,72,-99.99,,,-99.99,,2013-02-07 06:43:00,
2013-02-07 00:52:00,52.0,44.0,29.82,SSE,167,2.0,-999.0,73,-99.99,,,-99.99,,2013-02-07 06:52:00,
2013-02-07 01:01:00,52.0,44.0,29.82,SE,133,1.0,-999.0,74,-99.99,,,-99.99,,2013-02-07 07:01:00,
2013-02-07 01:11:00,52.0,44.0,29.82,SSE,161,2.0,-999.0,75,-99.99,,,-99.99,,2013-02-07 07:11:00,
2013-02-07 01:22:00,52.0,44.0,29.82,SSE,161,2.0,-999.0,75,-99.99,,,-99.99,,2013-02-07 07:22:00,
2013-02-07 01:32:00,52.0,44.0,29.83,ESE,121,2.0,-999.0,75,-99.99,,,-99.99,,2013-02-07 07:32:00,
2013-02-07 01:41:00,52.0,44.0,29.83,ESE,121,2.0,-999.0,75,-99.99,,,-99.99,,2013-02-07 07:41:00,
2013-02-07 01:52:00,52.0,45.0,29.83,SSE,151,1.0,-999.0,76,-99.99,,,-99.99,,2013-02-07 07:52:00,
2013-02-07 02:01:00,52.0,45.0,29.82,South,186,1.0,-999.0,77,-99.99,,,-99.99,,2013-02-07 08:01:00,
2013-02-07 02:11:00,52.0,45.0,29.82,South,186,1.0,-999.0,77,-99.99,,,-99.99,,2013-02-07 08:11:00,
2013-02-07 02:21:00,52.0,45.0,29.80,South,178,1.0,-999.0,77,-99.99,,,-99.99,,2013-02-07 08:21:00,
2013-02-07 02:32:00,52.0,45.0,29.81,SSE,148,1.0,-999.0,78,-99.99,,,-99.99,,2013-02-07 08:32:00,
2013-02-07 02:42:00,52.0,45.0,29.81,SSE,148,1.0,-999.0,78,-99.99,,,-99.99,,2013-02-07 08:42:00,
2013-02-07 02:52:00,52.0,46.0,29.80,SE,137,1.0,-999.0,79,-99.99,,,-99.99,,2013-02-07 08:52:00,
2013-02-07 03:01:00,52.0,46.0,29.79,SSE,150,1.0,-999.0,80,-99.99,,,-99.99,,2013-02-07 09:01:00,
2013-02-07 03:11:00,52.0,47.0,29.79,SSE,152,1.0,-999.0,82,-99.99,,,-99.99,,2013-02-07 09:11:00,
2013-02-07 03:21:00,52.0,47.0,29.79,SSE,152,1.0,-999.0,82,-99.99,,,-99.99,,2013-02-07 09:21:00,
2013-02-07 03:31:00,52.0,47.0,29.78,SSE,165,1.0,-999.0,83,-99.99,,,-99.99,,2013-02-07 09:31:00,
2013-02-07 03:41:00,52.0,47.0,29.78,SSE,165,1.0,-999.0,83,-99.99,,,-99.99,,2013-02-07 09:41:00,
2013-02-07 03:52:00,52.0,47.0,29.78,SE,145,1.0,-999.0,84,-99.99,,,-99.99,,2013-02-07 09:52:00,
2013-02-07 04:01:00,52.0,47.0,29.78,South,175,1.0,-999.0,84,-99.99,,,-99.99,,2013-02-07 10:01:00,
2013-02-07 04:11:00,52.0,47.0,29.78,South,175,1.0,-999.0,84,-99.99,,,-99.99,,2013-02-07 10:11:00,
2013-02-07 04:22:00,52.0,47.0,29.77,SSE,148,1.0,-999.0,84,-99.99,,,-99.99,,2013-02-07 10:22:00,
2013-02-07 04:32:00,52.0,47.0,29.77,South,171,1.0,-999.0,84,-99.99,,,-99.99,,2013-02-07 10:32:00,
2013-02-07 04:41:00,52.0,47.0,29.77,South,171,1.0,-999.0,84,-99.99,,,-99.99,,2013-02-07 10:41:00,
2013-02-07 04:52:00,52.0,48.0,29.76,East,100,1.0,-999.0,85,-99.99,,,-99.99,,2013-02-07 10:52:00,
2013-02-07 05:01:00,52.0,48.0,29.75,SSE,160,1.0,-999.0,85,-99.99,,,-99.99,,2013-02-07 11:01:00,
2013-02-07 05:11:00,52.0,48.0,29.75,SSE,160,1.0,-999.0,85,-99.99,,,-99.99,,2013-02-07 11:11:00,
2013-02-07 05:22:00,52.0,48.0,29.76,SE,143,1.0,-999.0,85,-99.99,,,-99.99,,2013-02-07 11:22:00,
2013-02-07 05:32:00,52.0,48.0,29.76,SE,128,1.0,-999.0,86,-99.99,,,-99.99,,2013-02-07 11:32:00,
2013-02-07 05:44:00,52.0,48.0,29.76,SE,128,1.0,-999.0,86,-99.99,,,-99.99,,2013-02-07 11:44:00,
2013-02-07 05:52:00,52.0,48.0,29.76,South,172,0.0,-999.0,86,-99.99,,,-99.99,,2013-02-07 11:52:00,
2013-02-07 06:02:00,52.0,48.0,29.76,SSE,150,1.0,-999.0,86,-99.99,,,-99.99,,2013-02-07 12:02:00,
2013-02-07 06:11:00,52.0,48.0,29.76,SSE,150,1.0,-999.0,86,-99.99,,,-99.99,,2013-02-07 12:11:00,
2013-02-07 06:22:00,52.0,48.0,29.75,SE,137,1.0,-999.0,86,-99.99,,,-99.99,,2013-02-07 12:22:00,
2013-02-07 06:32:00,52.0,48.0,29.75,SSE,160,0.0,-999.0,86,-99.99,,,-99.99,,2013-02-07 12:32:00,
2013-02-07 06:42:00,52.0,48.0,29.75,SSE,160,0.0,-999.0,86,-99.99,,,-99.99,,2013-02-07 12:42:00,
2013-02-07 06:53:00,52.0,48.0,29.75,SSE,155,0.0,-999.0,86,-99.99,,,-99.99,,2013-02-07 12:53:00,
2013-02-07 07:02:00,52.0,48.0,29.75,SE,130,1.0,-999.0,87,-99.99,,,-99.99,,2013-02-07 13:02:00,
2013-02-07 07:12:00,52.0,48.0,29.75,SE,130,1.0,-999.0,87,-99.99,,,-99.99,,2013-02-07 13:12:00,
2013-02-07 07:22:00,52.0,48.0,29.75,ESE,113,0.0,-999.0,87,-99.99,,,-99.99,,2013-02-07 13:22:00,
2013-02-07 07:32:00,52.0,48.0,29.75,SSE,164,0.0,-999.0,87,-99.99,,,-99.99,,2013-02-07 13:32:00,
2013-02-07 07:42:00,52.0,48.0,29.75,SSE,164,0.0,-999.0,87,-99.99,,,-99.99,,2013-02-07 13:42:00,
2013-02-07 07:52:00,52.0,49.0,29.76,South,184,0.0,-999.0,88,-99.99,,,-99.99,,2013-02-07 13:52:00,
2013-02-07 08:01:00,52.0,49.0,29.76,SE,128,0.0,-999.0,88,-99.99,,,-99.99,,2013-02-07 14:01:00,
2013-02-07 08:11:00,52.0,49.0,29.76,SE,128,0.0,-999.0,88,-99.99,,,-99.99,,2013-02-07 14:11:00,
2013-02-07 08:21:00,52.0,49.0,29.76,SE,134,0.0,-999.0,88,-99.99,,,-99.99,,2013-02-07 14:21:00,
2013-02-07 08:32:00,52.0,49.0,29.77,North,-999,-999.0,-999.0,88,-99.99,,,-99.99,,2013-02-07 14:32:00,
2013-02-07 08:42:00,52.0,49.0,29.77,North,-999,-999.0,-999.0,88,-99.99,,,-99.99,,2013-02-07 14:42:00,
2013-02-07 08:52:00,53.0,50.0,29.77,SE,141,0.0,-999.0,88,-99.99,,,-99.99,,2013-02-07 14:52:00,
2013-02-07 09:01:00,53.0,50.0,29.78,ENE,76,1.0,-999.0,88,-99.99,,,-99.99,,2013-02-07 15:01:00,
2013-02-07 09:11:00,53.0,50.0,29.78,ENE,76,1.0,-999.0,88,-99.99,,,-99.99,,2013-02-07 15:11:00,
2013-02-07 09:22:00,53.0,50.0,29.80,NNW,329,0.0,-999.0,88,-99.99,,,-99.99,,2013-02-07 15:22:00,
2013-02-07 09:32:00,54.0,50.0,29.81,NNW,328,0.0,-999.0,87,-99.99,,,-99.99,,2013-02-07 15:32:00,
2013-02-07 09:42:00,54.0,50.0,29.81,NNW,328,0.0,-999.0,87,-99.99,,,-99.99,,2013-02-07 15:42:00,
2013-02-07 09:52:00,54.0,51.0,29.82,NNW,328,0.0,-999.0,88,-99.99,,,-99.99,,2013-02-07 15:52:00,
2013-02-07 10:01:00,54.0,51.0,29.81,NNW,329,0.0,-999.0,88,-99.99,,,-99.99,,2013-02-07 16:01:00,
2013-02-07 10:11:00,54.0,51.0,29.81,NNW,329,0.0,-999.0,88,-99.99,,,-99.99,,2013-02-07 16:11:00,
2013-02-07 10:21:00,53.0,50.0,29.82,NNW,329,0.0,-999.0,89,-99.99,,,-99.99,,2013-02-07 16:21:00,
2013-02-07 10:32:00,53.0,50.0,29.81,North,360,0.0,-999.0,89,-99.99,,,-99.99,,2013-02-07 16:32:00,
2013-02-07 10:41:00,53.0,50.0,29.81,North,360,0.0,-999.0,89,-99.99,,,-99.99,,2013-02-07 16:41:00,
2013-02-07 10:52:00,54.0,51.0,29.81,SE,126,0.0,-999.0,88,-99.99,,,-99.99,,2013-02-07 16:52:00,
2013-02-07 11:01:00,55.0,51.0,29.81,SE,130,0.0,-999.0,87,-99.99,,,-99.99,,2013-02-07 17:01:00,
2013-02-07 11:11:00,56.0,52.0,29.81,ESE,123,0.0,-999.0,85,-99.99,,,-99.99,,2013-02-07 17:11:00,
2013-02-07 11:21:00,56.0,52.0,29.81,ESE,123,0.0,-999.0,85,-99.99,,,-99.99,,2013-02-07 17:21:00,
2013-02-07 11:31:00,56.0,52.0,29.81,South,174,0.0,-999.0,85,-99.99,,,-99.99,,2013-02-07 17:31:00,
2013-02-07 11:42:00,56.0,52.0,29.81,South,174,0.0,-999.0,85,-99.99,,,-99.99,,2013-02-07 17:42:00,
2013-02-07 11:52:00,57.0,52.0,29.80,SSE,147,0.0,-999.0,84,-99.99,,,-99.99,,2013-02-07 17:52:00,
2013-02-07 12:01:00,57.0,52.0,29.80,South,186,0.0,-999.0,83,-99.99,,,-99.99,,2013-02-07 18:01:00,
2013-02-07 12:11:00,57.0,52.0,29.80,South,186,0.0,-999.0,83,-99.99,,,-99.99,,2013-02-07 18:11:00,
2013-02-07 12:23:00,59.0,53.0,29.79,SSW,209,1.0,-999.0,80,-99.99,,,-99.99,,2013-02-07 18:23:00,
2013-02-07 12:31:00,60.0,53.0,29.79,WSW,246,1.0,-999.0,79,-99.99,,,-99.99,,2013-02-07 18:31:00,
2013-02-07 12:41:00,60.0,53.0,29.79,WSW,246,1.0,-999.0,79,-99.99,,,-99.99,,2013-02-07 18:41:00,
2013-02-07 12:52:00,60.0,53.0,29.80,NNW,335,1.0,-999.0,79,-99.99,,,-99.99,,2013-02-07 18:52:00,
2013-02-07 13:01:00,56.0,51.0,29.80,North,357,3.0,-999.0,83,-99.99,,,-99.99,,2013-02-07 19:01:00,
2013-02-07 13:11:00,54.0,51.0,29.80,NNW,343,2.0,-999.0,90,-99.99,,,-99.99,,2013-02-07 19:11:00,
2013-02-07 13:22:00,54.0,51.0,29.80,NNW,343,2.0,-999.0,90,-99.99,,,-99.99,,2013-02-07 19:22:00,
2013-02-07 13:31:00,54.0,51.0,29.80,North,359,4.0,-999.0,90,-99.99,,,-99.99,,2013-02-07 19:31:00,
2013-02-07 13:41:00,54.0,51.0,29.80,North,359,4.0,-999.0,90,-99.99,,,-99.99,,2013-02-07 19:41:00,
2013-02-07 13:52:00,53.0,50.0,29.80,NNW,342,3.0,-999.0,90,-99.99,,,-99.99,,2013-02-07 19:52:00,
2013-02-07 14:01:00,53.0,50.0,29.81,NNE,18,4.0,-999.0,91,-99.99,,,-99.99,,2013-02-07 20:01:00,
2013-02-07 14:11:00,53.0,50.0,29.81,NNE,18,4.0,-999.0,91,-99.99,,,-99.99,,2013-02-07 20:11:00,
2013-02-07 14:22:00,52.0,49.0,29.81,North,360,3.0,-999.0,91,-99.99,,,-99.99,,2013-02-07 20:22:00,
2013-02-07 14:31:00,52.0,49.0,29.82,North,360,4.0,-999.0,91,-99.99,,,-99.99,,2013-02-07 20:31:00,
2013-02-07 14:41:00,52.0,49.0,29.82,North,360,4.0,-999.0,91,-99.99,,,-99.99,,2013-02-07 20:41:00,
2013-02-07 14:52:00,52.0,50.0,29.82,North,360,4.0,-999.0,92,-99.99,,,-99.99,,2013-02-07 20:52:00,
2013-02-07 15:01:00,52.0,50.0,29.82,North,360,3.0,-999.0,92,-99.99,,,-99.99,,2013-02-07 21:01:00,
2013-02-07 15:11:00,52.0,50.0,29.82,North,360,3.0,-999.0,92,-99.99,,,-99.99,,2013-02-07 21:11:00,
2013-02-07 15:21:00,52.0,50.0,29.83,NNW,344,3.0,-999.0,92,-99.99,,,-99.99,,2013-02-07 21:21:00,
2013-02-07 15:32:00,52.0,49.0,29.83,NW,318,3.0,-999.0,91,-99.99,,,-99.99,,2013-02-07 21:32:00,
2013-02-07 15:42:00,52.0,49.0,29.83,NW,318,3.0,-999.0,91,-99.99,,,-99.99,,2013-02-07 21:42:00,
2013-02-07 15:52:00,52.0,49.0,29.84,NW,316,3.0,-999.0,90,-99.99,,,-99.99,,2013-02-07 21:52:00,
2013-02-07 16:02:00,52.0,49.0,29.84,North,360,4.0,-999.0,88,-99.99,,,-99.99,,2013-02-07 22:02:00,
2013-02-07 16:11:00,52.0,48.0,29.84,NW,322,4.0,-999.0,87,-99.99,,,-99.99,,2013-02-07 22:11:00,
2013-02-07 16:21:00,52.0,48.0,29.84,NW,322,4.0,-999.0,87,-99.99,,,-99.99,,2013-02-07 22:21:00,
2013-02-07 16:31:00,52.0,49.0,29.85,NW,326,3.0,-999.0,88,-99.99,,,-99.99,,2013-02-07 22:31:00,
2013-02-07 16:42:00,52.0,49.0,29.85,NW,326,3.0,-999.0,88,-99.99,,,-99.99,,2013-02-07 22:42:00,
2013-02-07 16:52:00,53.0,48.0,29.85,NW,325,4.0,-999.0,84,-99.99,,,-99.99,,2013-02-07 22:52:00,
2013-02-07 17:01:00,53.0,48.0,29.86,NNW,340,2.0,-999.0,84,-99.99,,,-99.99,,2013-02-07 23:01:00,
2013-02-07 17:11:00,53.0,48.0,29.86,NNW,340,2.0,-999.0,84,-99.99,,,-99.99,,2013-02-07 23:11:00,
2013-02-07 17:21:00,53.0,47.0,29.87,NW,311,5.0,-999.0,81,-99.99,,,-99.99,,2013-02-07 23:21:00,
2013-02-07 17:32:00,52.0,46.0,29.88,NW,326,3.0,-999.0,81,-99.99,,,-99.99,,2013-02-07 23:32:00,
2013-02-07 17:41:00,52.0,46.0,29.88,NW,326,3.0,-999.0,81,-99.99,,,-99.99,,2013-02-07 23:41:00,
2013-02-07 17:52:00,51.0,45.0,29.90,NW,320,5.0,-999.0,80,-99.99,,,-99.99,,2013-02-07 23:52:00,
2013-02-07 18:01:00,51.0,45.0,29.91,North,-999,-999.0,-999.0,80,-99.99,,,-99.99,,2013-02-08 00:01:00,
2013-02-07 18:11:00,51.0,45.0,29.91,North,-999,-999.0,-999.0,80,-99.99,,,-99.99,,2013-02-08 00:11:00,
2013-02-07 18:21:00,50.0,45.0,29.92,NW,315,5.0,-999.0,84,-99.99,,,-99.99,,2013-02-08 00:21:00,
2013-02-07 18:31:00,50.0,45.0,29.93,NNW,337,3.0,-999.0,83,-99.99,,,-99.99,,2013-02-08 00:31:00,
2013-02-07 18:41:00,50.0,45.0,29.93,NNW,337,3.0,-999.0,83,-99.99,,,-99.99,,2013-02-08 00:41:00,
2013-02-07 18:52:00,50.0,44.0,29.94,North,357,3.0,-999.0,79,-99.99,,,-99.99,,2013-02-08 00:52:00,
2013-02-07 19:01:00,50.0,43.0,29.95,North,354,3.0,-999.0,78,-99.99,,,-99.99,,2013-02-08 01:01:00,
2013-02-07 19:11:00,50.0,43.0,29.95,North,354,3.0,-999.0,78,-99.99,,,-99.99,,2013-02-08 01:11:00,
2013-02-07 19:21:00,49.0,42.0,29.95,North,360,3.0,-999.0,77,-99.99,,,-99.99,,2013-02-08 01:21:00,
2013-02-07 19:31:00,49.0,42.0,29.95,NNW,337,2.0,-999.0,76,-99.99,,,-99.99,,2013-02-08 01:31:00,
2013-02-07 19:41:00,49.0,42.0,29.95,NNW,337,2.0,-999.0,76,-99.99,,,-99.99,,2013-02-08 01:41:00,
2013-02-07 19:52:00,49.0,42.0,29.96,NW,322,2.0,-999.0,77,-99.99,,,-99.99,,2013-02-08 01:52:00,
2013-02-07 20:01:00,49.0,42.0,29.96,NW,323,2.0,-999.0,77,-99.99,,,-99.99,,2013-02-08 02:01:00,
2013-02-07 20:11:00,49.0,42.0,29.96,NW,323,2.0,-999.0,77,-99.99,,,-99.99,,2013-02-08 02:11:00,
2013-02-07 20:21:00,48.0,41.0,29.97,NNW,329,1.0,-999.0,78,-99.99,,,-99.99,,2013-02-08 02:21:00,
2013-02-07 20:31:00,48.0,41.0,29.98,NW,305,2.0,-999.0,78,-99.99,,,-99.99,,2013-02-08 02:31:00,
2013-02-07 20:42:00,48.0,41.0,29.98,NW,305,2.0,-999.0,78,-99.99,,,-99.99,,2013-02-08 02:42:00,
2013-02-07 20:52:00,48.0,41.0,29.98,North,352,1.0,-999.0,78,-99.99,,,-99.99,,2013-02-08 02:52:00,
2013-02-07 21:01:00,48.0,40.0,29.99,WNW,288,3.0,-999.0,75,-99.99,,,-99.99,,2013-02-08 03:01:00,
2013-02-07 21:12:00,48.0,40.0,29.99,WNW,288,3.0,-999.0,75,-99.99,,,-99.99,,2013-02-08 03:12:00,
2013-02-07 21:22:00,48.0,39.0,30.00,North,352,3.0,-999.0,72,-99.99,,,-99.99,,2013-02-08 03:22:00,
2013-02-07 21:32:00,47.0,39.0,30.00,NNE,18,3.0,-999.0,73,-99.99,,,-99.99,,2013-02-08 03:32:00,
2013-02-07 21:41:00,47.0,39.0,30.00,NNE,18,3.0,-999.0,73,-99.99,,,-99.99,,2013-02-08 03:41:00,
2013-02-07 21:52:00,47.0,38.0,30.01,NW,319,3.0,-999.0,72,-99.99,,,-99.99,,2013-02-08 03:52:00,
2013-02-07 22:01:00,47.0,38.0,30.01,North,8,3.0,-999.0,71,-99.99,,,-99.99,,2013-02-08 04:01:00,
2013-02-07 22:11:00,47.0,38.0,30.01,North,8,3.0,-999.0,71,-99.99,,,-99.99,,2013-02-08 04:11:00,
2013-02-07 22:21:00,46.0,37.0,30.03,North,6,3.0,-999.0,72,-99.99,,,-99.99,,2013-02-08 04:21:00,
2013-02-07 22:32:00,46.0,37.0,30.03,NNW,340,3.0,-999.0,72,-99.99,,,-99.99,,2013-02-08 04:32:00,
2013-02-07 22:41:00,46.0,37.0,30.03,NNW,340,3.0,-999.0,72,-99.99,,,-99.99,,2013-02-08 04:41:00,
2013-02-07 22:52:00,46.0,38.0,30.03,NW,316,3.0,-999.0,73,-99.99,,,-99.99,,2013-02-08 04:52:00,
2013-02-07 23:02:00,45.0,37.0,30.04,North,353,2.0,-999.0,73,-99.99,,,-99.99,,2013-02-08 05:02:00,
2013-02-07 23:11:00,45.0,37.0,30.04,North,353,2.0,-999.0,73,-99.99,,,-99.99,,2013-02-08 05:11:00,
2013-02-07 23:22:00,45.0,37.0,30.05,North,354,2.0,-999.0,74,-99.99,,,-99.99,,2013-02-08 05:22:00,
2013-02-07 23:31:00,45.0,37.0,30.05,NNW,328,2.0,-999.0,74,-99.99,,,-99.99,,2013-02-08 05:31:00,
2013-02-07 23:42:00,45.0,37.0,30.05,NNW,328,2.0,-999.0,74,-99.99,,,-99.99,,2013-02-08 05:42:00,
2013-02-07 23:52:00,44.0,37.0,30.06,North,353,2.0,-999.0,76,-99.99,,,-99.99,,2013-02-08 05:52:00,